createdAt,value
2023-02-26T00:05:06.282Z,23
2023-02-26T00:16:40.405Z,22.9
2023-02-26T00:22:33.836Z,22.8
2023-02-26T00:28:26.655Z,22.8
2023-02-26T00:34:20.375Z,22.8
2023-02-26T00:40:13.748Z,22.8
2023-02-26T00:46:06.689Z,22.8
2023-02-26T00:51:59.670Z,22.8
2023-02-26T00:57:51.536Z,22.7
2023-02-26T01:03:44.562Z,22.7
2023-02-26T01:09:37.295Z,22.7
2023-02-26T01:15:29.205Z,22.6
2023-02-26T01:21:24.144Z,22.6
2023-02-26T01:27:16.952Z,22.6
2023-02-26T01:33:10.664Z,22.6
2023-02-26T01:39:04.275Z,22.6
2023-02-26T01:44:57.275Z,22.6
2023-02-26T01:50:50.554Z,22.5
2023-02-26T01:56:44.851Z,22.5
2023-02-26T02:02:37.081Z,22.5
2023-02-26T02:08:29.814Z,22.5
2023-02-26T02:25:37.337Z,22.4
2023-02-26T02:31:31.906Z,22.4
2023-02-26T02:37:25.588Z,22.4
2023-02-26T02:43:19.232Z,22.4
2023-02-26T02:49:14.355Z,22.4
2023-02-26T02:55:06.928Z,22.4
2023-02-26T03:00:59.197Z,22.4
2023-02-26T03:06:53.975Z,22.3
2023-02-26T03:12:47.142Z,22.3
2023-02-26T03:18:40.775Z,22.3
2023-02-26T03:24:34.402Z,22.3
2023-02-26T03:30:26.987Z,22.3
2023-02-26T03:36:19.850Z,22.3
2023-02-26T03:47:49.830Z,22.2
2023-02-26T03:59:20.661Z,22.3
2023-02-26T04:04:59.159Z,22.3
2023-02-26T04:10:38.639Z,22.3
2023-02-26T04:22:09.459Z,22.2
2023-02-26T04:28:02.171Z,22.2
2023-02-26T04:33:55.960Z,22.1
2023-02-26T04:45:25.612Z,22.1
2023-02-26T04:56:43.313Z,22.1
2023-02-26T05:07:57.507Z,22.1
2023-02-26T05:13:50.668Z,22.1
2023-02-26T05:19:44.196Z,22.1
2023-02-26T05:25:39.659Z,22.1
2023-02-26T05:31:32.920Z,22.1
2023-02-26T05:37:26.056Z,22.1
2023-02-26T05:43:19.337Z,22.1
2023-02-26T05:49:12.609Z,22.1
2023-02-26T05:54:50.067Z,22.1
2023-02-26T06:00:42.556Z,22.1
2023-02-26T06:06:35.308Z,22.1
2023-02-26T06:12:26.879Z,22.1
2023-02-26T06:18:20.226Z,22.1
2023-02-26T06:24:12.476Z,22.1
2023-02-26T06:30:05.545Z,22.1
2023-02-26T06:35:43.858Z,22.1
2023-02-26T06:41:22.578Z,22.1
2023-02-26T06:47:15.129Z,22.1
2023-02-26T06:53:07.481Z,22.1
2023-02-26T06:58:59.639Z,22.1
2023-02-26T07:04:53.854Z,22.1
2023-02-26T07:11:07.885Z,22.2
2023-02-26T07:17:01.173Z,22.2
2023-02-26T07:22:55.222Z,22.2
2023-02-26T07:28:49.959Z,22.2
2023-02-26T07:34:43.714Z,22.2
2023-02-26T07:40:35.441Z,22.2
2023-02-26T07:46:28.906Z,22.3
2023-02-26T07:52:05.731Z,22.2
2023-02-26T07:57:58.083Z,22.2
2023-02-26T08:03:51.342Z,22.2
2023-02-26T08:09:43.732Z,22.1
2023-02-26T08:15:36.826Z,22.1
2023-02-26T08:26:52.930Z,22.1
2023-02-26T08:32:46.565Z,22.1
2023-02-26T08:38:40.061Z,22.1
2023-02-26T08:44:04.021Z,22.1
2023-02-26T08:50:08.453Z,22.1
2023-02-26T08:56:01.036Z,22.2
2023-02-26T09:01:52.856Z,22.1
2023-02-26T09:07:49.642Z,22.1
2023-02-26T09:13:43.056Z,22.1
2023-02-26T09:19:20.316Z,22.2
2023-02-26T09:25:14.070Z,22.1
2023-02-26T09:31:06.940Z,22.1
2023-02-26T09:36:44.789Z,22.2
2023-02-26T09:42:39.232Z,22.2
2023-02-26T09:48:32.000Z,22.1
2023-02-26T09:54:08.317Z,22.2
2023-02-26T10:00:00.258Z,22.2
2023-02-26T10:05:53.609Z,22.1
2023-02-26T10:11:46.308Z,22.2
2023-02-26T10:17:22.065Z,22.1
2023-02-26T10:23:00.794Z,22.1
2023-02-26T10:28:53.428Z,22.1
2023-02-26T10:34:32.899Z,22.1
2023-02-26T10:40:12.411Z,22.1
2023-02-26T10:45:49.555Z,22.1
2023-02-26T10:51:11.278Z,22.1
2023-02-26T10:56:49.215Z,22.1
2023-02-26T11:02:26.507Z,22.1
2023-02-26T11:08:09.403Z,22.1
2023-02-26T11:14:02.740Z,22.1
2023-02-26T11:19:57.179Z,22.1
2023-02-26T11:25:51.893Z,22
2023-02-26T11:31:47.519Z,22
2023-02-26T11:37:41.300Z,22
2023-02-26T11:43:21.960Z,21.9
2023-02-26T11:48:59.434Z,21.9
2023-02-26T11:54:21.010Z,21.9
2023-02-26T12:00:00.273Z,21.9
2023-02-26T12:05:53.640Z,21.9
2023-02-26T12:11:46.972Z,21.9
2023-02-26T12:17:39.362Z,21.9
2023-02-26T12:23:20.130Z,21.9
2023-02-26T12:28:57.307Z,21.8
2023-02-26T12:34:50.655Z,21.8
2023-02-26T12:41:00.822Z,21.8
2023-02-26T12:46:38.224Z,21.8
2023-02-26T12:52:31.847Z,21.8
2023-02-26T12:58:24.942Z,21.8
2023-02-26T13:04:28.621Z,21.8
2023-02-26T13:10:20.151Z,21.8
2023-02-26T13:16:13.877Z,21.8
2023-02-26T13:22:06.231Z,21.8
2023-02-26T13:27:57.977Z,21.8
2023-02-26T13:33:56.303Z,21.8
2023-02-26T13:39:48.916Z,21.8
2023-02-26T13:45:42.091Z,21.8
2023-02-26T13:50:48.565Z,21.8
2023-02-26T13:56:10.173Z,21.8
2023-02-26T14:01:49.057Z,21.8
2023-02-26T14:07:26.013Z,21.8
2023-02-26T14:13:05.009Z,21.8
2023-02-26T14:18:42.242Z,21.8
2023-02-26T14:24:35.162Z,21.9
2023-02-26T14:30:28.287Z,21.9
2023-02-26T14:36:22.302Z,21.8
2023-02-26T14:42:19.044Z,21.8
2023-02-26T14:48:11.789Z,21.8
2023-02-26T14:54:04.273Z,21.8
2023-02-26T14:59:42.398Z,21.8
2023-02-26T15:05:49.907Z,21.8
2023-02-26T15:11:42.942Z,21.8
2023-02-26T15:17:38.023Z,21.8
2023-02-26T15:23:31.389Z,21.8
2023-02-26T15:29:24.697Z,21.9
2023-02-26T15:35:19.405Z,21.9
2023-02-26T15:41:13.053Z,21.9
2023-02-26T15:47:14.392Z,21.9
2023-02-26T15:53:07.425Z,22
2023-02-26T15:59:00.221Z,22
2023-02-26T16:04:38.234Z,21.9
2023-02-26T16:10:30.793Z,21.8
2023-02-26T16:16:23.751Z,21.8
2023-02-26T16:22:17.251Z,21.8
2023-02-26T16:28:11.118Z,21.8
2023-02-26T16:34:04.733Z,21.7
2023-02-26T16:39:43.097Z,21.7
2023-02-26T16:45:21.382Z,21.6
2023-02-26T17:01:48.258Z,21.6
2023-02-26T17:07:26.434Z,21.6
2023-02-26T17:13:23.112Z,21.6
2023-02-26T17:19:18.042Z,21.6
2023-02-26T17:25:11.168Z,21.5
2023-02-26T17:31:04.746Z,21.5
2023-02-26T17:36:59.059Z,21.5
2023-02-26T17:42:51.915Z,21.5
2023-02-26T17:48:45.089Z,21.5
2023-02-26T17:54:38.884Z,21.5
2023-02-26T18:00:32.346Z,21.5
2023-02-26T18:06:27.198Z,21.5
2023-02-26T18:12:20.953Z,21.5
2023-02-26T18:18:14.150Z,21.5
2023-02-26T18:24:07.235Z,21.5
2023-02-26T18:30:00.793Z,21.5
2023-02-26T18:35:54.642Z,21.5
2023-02-26T18:41:47.628Z,21.5
2023-02-26T18:47:41.104Z,21.5
2023-02-26T18:53:33.951Z,21.6
2023-02-26T18:59:30.299Z,21.4
2023-02-26T19:05:24.779Z,21.4
2023-02-26T19:11:17.349Z,21.3
2023-02-26T19:17:11.382Z,21.4
2023-02-26T19:23:05.210Z,21.4
2023-02-26T19:29:01.693Z,21.4
2023-02-26T19:34:59.378Z,21.4
2023-02-26T19:40:53.693Z,21.3
2023-02-26T19:46:47.081Z,21.4
2023-02-26T19:52:39.971Z,21.4
2023-02-26T19:58:32.785Z,21.4
2023-02-26T20:04:26.626Z,21.4
2023-02-26T20:10:21.646Z,21.5
2023-02-26T20:16:15.498Z,21.4
2023-02-26T20:22:09.428Z,21.4
2023-02-26T20:27:46.324Z,21.4
2023-02-26T20:33:44.067Z,21.4
2023-02-26T20:39:38.973Z,21.5
2023-02-26T20:45:32.390Z,21.6
2023-02-26T20:51:26.419Z,21.4
2023-02-26T21:08:36.240Z,21.5
2023-02-26T21:14:28.618Z,21.5
2023-02-26T21:20:21.904Z,21.6
2023-02-26T21:26:15.590Z,21.3
2023-02-26T21:32:10.466Z,21
2023-02-26T21:38:29.373Z,21.3
2023-02-26T21:44:23.317Z,21.4
2023-02-26T21:50:16.959Z,21.6
2023-02-26T21:56:10.352Z,21.6
2023-02-26T22:02:03.700Z,21.6
2023-02-26T22:07:56.062Z,21.6
2023-02-26T22:13:49.392Z,21.7
2023-02-26T22:19:41.884Z,21.7
2023-02-26T22:25:33.684Z,21.7
2023-02-26T22:31:26.062Z,21.8
2023-02-26T22:37:19.442Z,21.8
2023-02-26T22:43:12.325Z,21.8
2023-02-26T22:49:04.979Z,21.8
2023-02-26T22:54:57.739Z,21.9
2023-02-26T23:00:49.509Z,21.9
2023-02-26T23:06:43.561Z,21.9
2023-02-26T23:12:36.491Z,21.9
2023-02-26T23:18:28.975Z,21.9
2023-02-26T23:24:20.720Z,21.9
2023-02-26T23:30:13.434Z,21.9
2023-02-26T23:36:06.291Z,21.9
2023-02-26T23:41:58.819Z,21.9
2023-02-26T23:47:51.543Z,21.9
2023-02-26T23:53:43.191Z,21.9
2023-02-26T23:59:35.749Z,21.9
